sensor_id;sensor_type;location;lat;lon;timestamp;temperature;humidity
18932;DHT22;9598;50.954;3.112;2023-02-08T00:03:22;2.10;99.90
18932;DHT22;9598;50.954;3.112;2023-02-08T00:08:24;2.00;99.90
18932;DHT22;9598;50.954;3.112;2023-02-08T00:13:27;2.00;99.90
18932;DHT22;9598;50.954;3.112;2023-02-08T00:18:30;2.00;99.90
18932;DHT22;9598;50.954;3.112;2023-02-08T00:23:32;2.00;99.90
18932;DHT22;9598;50.954;3.112;2023-02-08T00:28:36;1.90;99.90
18932;DHT22;9598;50.954;3.112;2023-02-08T00:33:38;1.90;99.90
18932;DHT22;9598;50.954;3.112;2023-02-08T00:38:40;1.80;99.90
18932;DHT22;9598;50.954;3.112;2023-02-08T00:43:43;1.80;99.90
18932;DHT22;9598;50.954;3.112;2023-02-08T00:48:46;1.70;99.90
18932;DHT22;9598;50.954;3.112;2023-02-08T00:53:48;1.70;99.90
18932;DHT22;9598;50.954;3.112;2023-02-08T00:58:51;1.70;99.90
18932;DHT22;9598;50.954;3.112;2023-02-08T01:03:53;1.70;99.90
18932;DHT22;9598;50.954;3.112;2023-02-08T01:08:55;1.60;99.90
18932;DHT22;9598;50.954;3.112;2023-02-08T01:13:59;1.60;99.90
18932;DHT22;9598;50.954;3.112;2023-02-08T01:19:03;1.60;99.90
18932;DHT22;9598;50.954;3.112;2023-02-08T01:24:09;1.60;99.90
18932;DHT22;9598;50.954;3.112;2023-02-08T01:29:13;1.50;99.90
18932;DHT22;9598;50.954;3.112;2023-02-08T01:34:15;1.50;99.90
18932;DHT22;9598;50.954;3.112;2023-02-08T01:39:17;1.50;99.90
18932;DHT22;9598;50.954;3.112;2023-02-08T01:50:00;1.40;99.90
18932;DHT22;9598;50.954;3.112;2023-02-08T01:55:07;1.40;99.90
18932;DHT22;9598;50.954;3.112;2023-02-08T02:00:14;1.40;99.90
18932;DHT22;9598;50.954;3.112;2023-02-08T02:05:20;1.40;99.90
18932;DHT22;9598;50.954;3.112;2023-02-08T02:10:26;1.30;99.90
18932;DHT22;9598;50.954;3.112;2023-02-08T02:15:28;1.40;99.90
18932;DHT22;9598;50.954;3.112;2023-02-08T02:20:41;1.30;99.90
18932;DHT22;9598;50.954;3.112;2023-02-08T02:26:14;1.30;99.90
18932;DHT22;9598;50.954;3.112;2023-02-08T02:31:48;1.30;99.90
18932;DHT22;9598;50.954;3.112;2023-02-08T02:37:01;1.30;99.90
18932;DHT22;9598;50.954;3.112;2023-02-08T02:42:11;1.30;99.90
18932;DHT22;9598;50.954;3.112;2023-02-08T02:47:37;1.40;99.90
18932;DHT22;9598;50.954;3.112;2023-02-08T02:52:45;1.30;99.90
18932;DHT22;9598;50.954;3.112;2023-02-08T02:57:50;1.30;99.90
18932;DHT22;9598;50.954;3.112;2023-02-08T03:02:55;1.30;99.90
18932;DHT22;9598;50.954;3.112;2023-02-08T03:08:14;1.30;99.90
18932;DHT22;9598;50.954;3.112;2023-02-08T03:13:25;1.20;99.90
18932;DHT22;9598;50.954;3.112;2023-02-08T03:18:36;1.20;99.90
18932;DHT22;9598;50.954;3.112;2023-02-08T03:23:46;1.20;99.90
18932;DHT22;9598;50.954;3.112;2023-02-08T03:28:57;1.10;99.90
18932;DHT22;9598;50.954;3.112;2023-02-08T03:34:08;1.10;99.90
18932;DHT22;9598;50.954;3.112;2023-02-08T03:39:15;1.00;99.90
18932;DHT22;9598;50.954;3.112;2023-02-08T03:44:22;1.00;99.90
18932;DHT22;9598;50.954;3.112;2023-02-08T03:49:30;1.00;99.90
18932;DHT22;9598;50.954;3.112;2023-02-08T03:54:38;1.00;99.90
18932;DHT22;9598;50.954;3.112;2023-02-08T03:59:46;0.90;99.90
18932;DHT22;9598;50.954;3.112;2023-02-08T04:04:51;0.90;99.90
18932;DHT22;9598;50.954;3.112;2023-02-08T04:09:54;0.90;99.90
18932;DHT22;9598;50.954;3.112;2023-02-08T04:14:57;0.80;99.90
18932;DHT22;9598;50.954;3.112;2023-02-08T04:20:01;0.80;99.90
18932;DHT22;9598;50.954;3.112;2023-02-08T04:25:03;0.80;99.90
18932;DHT22;9598;50.954;3.112;2023-02-08T04:30:06;0.80;99.90
18932;DHT22;9598;50.954;3.112;2023-02-08T04:35:10;0.80;99.90
18932;DHT22;9598;50.954;3.112;2023-02-08T04:40:12;0.70;99.90
18932;DHT22;9598;50.954;3.112;2023-02-08T04:45:15;0.70;99.90
18932;DHT22;9598;50.954;3.112;2023-02-08T04:50:19;0.70;99.90
18932;DHT22;9598;50.954;3.112;2023-02-08T04:55:21;0.70;99.90
18932;DHT22;9598;50.954;3.112;2023-02-08T05:00:23;0.60;99.90
18932;DHT22;9598;50.954;3.112;2023-02-08T05:05:26;0.60;99.90
18932;DHT22;9598;50.954;3.112;2023-02-08T05:10:29;0.60;99.90
18932;DHT22;9598;50.954;3.112;2023-02-08T05:15:31;0.60;99.90
18932;DHT22;9598;50.954;3.112;2023-02-08T05:20:34;0.50;99.90
18932;DHT22;9598;50.954;3.112;2023-02-08T05:25:36;0.50;99.90
18932;DHT22;9598;50.954;3.112;2023-02-08T05:30:39;0.50;99.90
18932;DHT22;9598;50.954;3.112;2023-02-08T05:35:43;0.50;99.90
18932;DHT22;9598;50.954;3.112;2023-02-08T05:40:45;0.40;99.90
18932;DHT22;9598;50.954;3.112;2023-02-08T05:45:48;0.40;99.90
18932;DHT22;9598;50.954;3.112;2023-02-08T05:50:52;0.30;99.90
18932;DHT22;9598;50.954;3.112;2023-02-08T05:55:55;0.30;99.90
18932;DHT22;9598;50.954;3.112;2023-02-08T06:00:58;0.30;99.90
18932;DHT22;9598;50.954;3.112;2023-02-08T06:06:02;0.30;99.90
18932;DHT22;9598;50.954;3.112;2023-02-08T06:11:04;0.30;99.90
18932;DHT22;9598;50.954;3.112;2023-02-08T06:16:07;0.30;99.90
18932;DHT22;9598;50.954;3.112;2023-02-08T06:21:10;0.30;99.90
18932;DHT22;9598;50.954;3.112;2023-02-08T06:26:13;0.20;99.90
18932;DHT22;9598;50.954;3.112;2023-02-08T06:31:15;0.20;99.90
18932;DHT22;9598;50.954;3.112;2023-02-08T06:36:18;0.20;99.90
18932;DHT22;9598;50.954;3.112;2023-02-08T06:41:20;0.10;99.90
18932;DHT22;9598;50.954;3.112;2023-02-08T06:46:23;0.10;99.90
18932;DHT22;9598;50.954;3.112;2023-02-08T06:51:26;0.10;99.90
18932;DHT22;9598;50.954;3.112;2023-02-08T06:56:28;0.00;99.90
18932;DHT22;9598;50.954;3.112;2023-02-08T07:01:30;0.00;99.90
18932;DHT22;9598;50.954;3.112;2023-02-08T07:06:34;0.00;99.90
18932;DHT22;9598;50.954;3.112;2023-02-08T07:11:36;0.00;99.90
18932;DHT22;9598;50.954;3.112;2023-02-08T07:16:38;0.00;99.90
18932;DHT22;9598;50.954;3.112;2023-02-08T07:21:42;0.00;99.90
18932;DHT22;9598;50.954;3.112;2023-02-08T07:26:44;0.00;99.90
18932;DHT22;9598;50.954;3.112;2023-02-08T07:31:46;-0.10;99.90
18932;DHT22;9598;50.954;3.112;2023-02-08T07:36:49;0.00;99.90
18932;DHT22;9598;50.954;3.112;2023-02-08T07:41:51;-0.10;99.90
18932;DHT22;9598;50.954;3.112;2023-02-08T07:46:54;-0.10;99.90
18932;DHT22;9598;50.954;3.112;2023-02-08T07:51:58;-0.10;99.90
18932;DHT22;9598;50.954;3.112;2023-02-08T07:57:00;-0.10;99.90
18932;DHT22;9598;50.954;3.112;2023-02-08T08:02:03;0.00;99.90
18932;DHT22;9598;50.954;3.112;2023-02-08T08:07:06;0.00;99.90
18932;DHT22;9598;50.954;3.112;2023-02-08T08:12:09;0.00;99.90
18932;DHT22;9598;50.954;3.112;2023-02-08T08:17:11;0.10;99.90
18932;DHT22;9598;50.954;3.112;2023-02-08T08:22:15;0.10;99.90
18932;DHT22;9598;50.954;3.112;2023-02-08T08:27:17;0.20;99.90
18932;DHT22;9598;50.954;3.112;2023-02-08T08:32:19;0.20;99.90
18932;DHT22;9598;50.954;3.112;2023-02-08T08:37:22;0.30;99.90
18932;DHT22;9598;50.954;3.112;2023-02-08T08:42:24;0.40;99.90
18932;DHT22;9598;50.954;3.112;2023-02-08T08:47:27;0.40;99.90
18932;DHT22;9598;50.954;3.112;2023-02-08T08:52:30;0.50;99.90
18932;DHT22;9598;50.954;3.112;2023-02-08T08:57:33;0.60;99.90
18932;DHT22;9598;50.954;3.112;2023-02-08T09:02:35;0.70;99.90
18932;DHT22;9598;50.954;3.112;2023-02-08T09:07:38;0.70;99.90
18932;DHT22;9598;50.954;3.112;2023-02-08T09:12:40;0.80;99.90
18932;DHT22;9598;50.954;3.112;2023-02-08T09:17:42;0.90;99.90
18932;DHT22;9598;50.954;3.112;2023-02-08T09:22:46;1.00;99.90
18932;DHT22;9598;50.954;3.112;2023-02-08T09:27:48;1.10;99.90
18932;DHT22;9598;50.954;3.112;2023-02-08T09:32:50;1.20;99.90
18932;DHT22;9598;50.954;3.112;2023-02-08T09:37:54;1.30;99.90
18932;DHT22;9598;50.954;3.112;2023-02-08T09:43:05;1.50;99.90
18932;DHT22;9598;50.954;3.112;2023-02-08T09:48:17;1.60;99.90
18932;DHT22;9598;50.954;3.112;2023-02-08T09:53:27;1.80;99.90
18932;DHT22;9598;50.954;3.112;2023-02-08T09:58:34;2.00;99.90
18932;DHT22;9598;50.954;3.112;2023-02-08T10:03:39;2.30;99.90
18932;DHT22;9598;50.954;3.112;2023-02-08T10:08:49;2.50;99.90
18932;DHT22;9598;50.954;3.112;2023-02-08T10:14:14;2.70;99.90
18932;DHT22;9598;50.954;3.112;2023-02-08T10:19:39;2.90;99.90
18932;DHT22;9598;50.954;3.112;2023-02-08T10:25:29;3.10;99.90
18932;DHT22;9598;50.954;3.112;2023-02-08T10:30:38;3.20;99.90
18932;DHT22;9598;50.954;3.112;2023-02-08T10:35:45;3.40;99.90
18932;DHT22;9598;50.954;3.112;2023-02-08T10:40:52;3.50;99.90
18932;DHT22;9598;50.954;3.112;2023-02-08T10:46:02;3.70;99.90
18932;DHT22;9598;50.954;3.112;2023-02-08T10:51:09;3.80;99.90
18932;DHT22;9598;50.954;3.112;2023-02-08T10:56:37;4.00;99.90
18932;DHT22;9598;50.954;3.112;2023-02-08T11:01:43;4.10;99.90
18932;DHT22;9598;50.954;3.112;2023-02-08T11:06:48;4.20;99.90
18932;DHT22;9598;50.954;3.112;2023-02-08T11:11:53;4.30;99.90
18932;DHT22;9598;50.954;3.112;2023-02-08T11:16:56;4.40;99.90
18932;DHT22;9598;50.954;3.112;2023-02-08T11:21:59;4.50;99.90
18932;DHT22;9598;50.954;3.112;2023-02-08T11:27:17;4.70;99.90
18932;DHT22;9598;50.954;3.112;2023-02-08T11:32:19;4.90;99.90
18932;DHT22;9598;50.954;3.112;2023-02-08T11:37:23;4.90;99.90
18932;DHT22;9598;50.954;3.112;2023-02-08T11:42:34;5.10;99.90
18932;DHT22;9598;50.954;3.112;2023-02-08T11:47:37;5.20;99.90
18932;DHT22;9598;50.954;3.112;2023-02-08T11:52:41;5.40;99.90
18932;DHT22;9598;50.954;3.112;2023-02-08T11:57:53;5.60;99.90
18932;DHT22;9598;50.954;3.112;2023-02-08T12:02:58;5.80;99.90
18932;DHT22;9598;50.954;3.112;2023-02-08T12:08:07;5.90;99.90
18932;DHT22;9598;50.954;3.112;2023-02-08T12:13:28;6.00;99.90
18932;DHT22;9598;50.954;3.112;2023-02-08T12:18:52;6.20;99.90
18932;DHT22;9598;50.954;3.112;2023-02-08T12:24:02;6.30;99.90
18932;DHT22;9598;50.954;3.112;2023-02-08T12:29:33;6.40;99.90
18932;DHT22;9598;50.954;3.112;2023-02-08T12:34:53;6.50;99.90
18932;DHT22;9598;50.954;3.112;2023-02-08T12:40:06;6.60;99.90
18932;DHT22;9598;50.954;3.112;2023-02-08T12:51:00;6.80;99.90
18932;DHT22;9598;50.954;3.112;2023-02-08T12:56:11;6.90;99.90
18932;DHT22;9598;50.954;3.112;2023-02-08T13:01:18;7.00;99.90
18932;DHT22;9598;50.954;3.112;2023-02-08T13:06:23;7.10;99.90
18932;DHT22;9598;50.954;3.112;2023-02-08T13:11:32;7.20;99.90
18932;DHT22;9598;50.954;3.112;2023-02-08T13:16:40;7.20;99.90
18932;DHT22;9598;50.954;3.112;2023-02-08T13:21:45;7.30;99.90
18932;DHT22;9598;50.954;3.112;2023-02-08T13:26:47;7.40;99.90
18932;DHT22;9598;50.954;3.112;2023-02-08T13:31:54;7.50;99.90
18932;DHT22;9598;50.954;3.112;2023-02-08T13:36:59;7.60;99.90
18932;DHT22;9598;50.954;3.112;2023-02-08T13:42:03;7.70;99.90
18932;DHT22;9598;50.954;3.112;2023-02-08T13:47:23;7.80;99.80
18932;DHT22;9598;50.954;3.112;2023-02-08T13:52:52;7.90;99.90
18932;DHT22;9598;50.954;3.112;2023-02-08T13:57:56;7.90;99.90
18932;DHT22;9598;50.954;3.112;2023-02-08T14:03:01;8.00;99.90
18932;DHT22;9598;50.954;3.112;2023-02-08T14:08:05;7.90;99.90
18932;DHT22;9598;50.954;3.112;2023-02-08T14:13:22;8.00;99.90
18932;DHT22;9598;50.954;3.112;2023-02-08T14:18:29;7.90;99.90
18932;DHT22;9598;50.954;3.112;2023-02-08T14:23:34;8.00;99.90
18932;DHT22;9598;50.954;3.112;2023-02-08T14:28:39;7.90;99.90
18932;DHT22;9598;50.954;3.112;2023-02-08T14:33:52;7.90;99.90
18932;DHT22;9598;50.954;3.112;2023-02-08T14:39:17;7.90;99.90
18932;DHT22;9598;50.954;3.112;2023-02-08T14:44:55;7.90;99.90
18932;DHT22;9598;50.954;3.112;2023-02-08T14:50:03;7.80;99.90
18932;DHT22;9598;50.954;3.112;2023-02-08T14:55:11;7.80;99.90
18932;DHT22;9598;50.954;3.112;2023-02-08T15:00:19;7.80;99.90
18932;DHT22;9598;50.954;3.112;2023-02-08T15:05:24;7.80;99.90
18932;DHT22;9598;50.954;3.112;2023-02-08T15:10:28;7.70;99.90
18932;DHT22;9598;50.954;3.112;2023-02-08T15:15:33;7.70;99.90
18932;DHT22;9598;50.954;3.112;2023-02-08T15:20:38;7.80;99.90
18932;DHT22;9598;50.954;3.112;2023-02-08T15:25:40;7.70;99.90
18932;DHT22;9598;50.954;3.112;2023-02-08T15:30:43;7.70;99.90
18932;DHT22;9598;50.954;3.112;2023-02-08T15:35:55;7.70;99.90
18932;DHT22;9598;50.954;3.112;2023-02-08T15:41:03;7.70;99.90
18932;DHT22;9598;50.954;3.112;2023-02-08T15:46:14;7.70;99.90
18932;DHT22;9598;50.954;3.112;2023-02-08T15:51:19;7.60;99.90
18932;DHT22;9598;50.954;3.112;2023-02-08T15:56:26;7.60;99.90
18932;DHT22;9598;50.954;3.112;2023-02-08T16:01:30;7.60;99.90
18932;DHT22;9598;50.954;3.112;2023-02-08T16:06:36;7.60;99.90
18932;DHT22;9598;50.954;3.112;2023-02-08T16:11:39;7.50;99.90
18932;DHT22;9598;50.954;3.112;2023-02-08T16:16:47;7.50;99.90
18932;DHT22;9598;50.954;3.112;2023-02-08T16:21:51;7.50;99.90
18932;DHT22;9598;50.954;3.112;2023-02-08T16:26:59;7.40;99.90
18932;DHT22;9598;50.954;3.112;2023-02-08T16:32:04;7.40;99.90
18932;DHT22;9598;50.954;3.112;2023-02-08T16:37:22;7.30;99.90
18932;DHT22;9598;50.954;3.112;2023-02-08T16:42:29;7.30;99.90
18932;DHT22;9598;50.954;3.112;2023-02-08T16:47:38;7.20;99.90
18932;DHT22;9598;50.954;3.112;2023-02-08T16:52:42;7.10;99.90
18932;DHT22;9598;50.954;3.112;2023-02-08T16:57:46;7.00;99.90
18932;DHT22;9598;50.954;3.112;2023-02-08T17:02:49;6.90;99.90
18932;DHT22;9598;50.954;3.112;2023-02-08T17:07:53;6.80;99.90
18932;DHT22;9598;50.954;3.112;2023-02-08T17:12:56;6.70;99.90
18932;DHT22;9598;50.954;3.112;2023-02-08T17:17:58;6.60;99.90
18932;DHT22;9598;50.954;3.112;2023-02-08T17:23:04;6.50;99.90
18932;DHT22;9598;50.954;3.112;2023-02-08T17:28:07;6.40;99.90
18932;DHT22;9598;50.954;3.112;2023-02-08T17:33:11;6.40;99.90
18932;DHT22;9598;50.954;3.112;2023-02-08T17:38:19;6.30;99.90
18932;DHT22;9598;50.954;3.112;2023-02-08T17:43:21;6.20;99.90
18932;DHT22;9598;50.954;3.112;2023-02-08T17:48:24;6.20;99.90
18932;DHT22;9598;50.954;3.112;2023-02-08T17:53:29;6.10;99.90
18932;DHT22;9598;50.954;3.112;2023-02-08T17:58:31;6.00;99.90
18932;DHT22;9598;50.954;3.112;2023-02-08T18:03:33;5.90;99.90
18932;DHT22;9598;50.954;3.112;2023-02-08T18:08:38;5.90;99.90
18932;DHT22;9598;50.954;3.112;2023-02-08T18:13:41;5.80;99.90
18932;DHT22;9598;50.954;3.112;2023-02-08T18:18:43;5.80;99.90
18932;DHT22;9598;50.954;3.112;2023-02-08T18:23:47;5.80;99.90
18932;DHT22;9598;50.954;3.112;2023-02-08T18:28:50;5.70;99.90
18932;DHT22;9598;50.954;3.112;2023-02-08T18:33:52;5.70;99.90
18932;DHT22;9598;50.954;3.112;2023-02-08T18:38:56;5.60;99.90
18932;DHT22;9598;50.954;3.112;2023-02-08T18:43:58;5.50;99.90
18932;DHT22;9598;50.954;3.112;2023-02-08T18:49:02;5.40;99.90
18932;DHT22;9598;50.954;3.112;2023-02-08T18:54:07;5.40;99.90
18932;DHT22;9598;50.954;3.112;2023-02-08T18:59:09;5.30;99.90
18932;DHT22;9598;50.954;3.112;2023-02-08T19:04:12;5.30;99.90
18932;DHT22;9598;50.954;3.112;2023-02-08T19:09:15;5.20;99.90
18932;DHT22;9598;50.954;3.112;2023-02-08T19:14:17;5.20;99.90
18932;DHT22;9598;50.954;3.112;2023-02-08T19:19:20;5.10;99.90
18932;DHT22;9598;50.954;3.112;2023-02-08T19:24:23;5.10;99.90
18932;DHT22;9598;50.954;3.112;2023-02-08T19:29:25;5.00;99.90
18932;DHT22;9598;50.954;3.112;2023-02-08T19:34:27;5.00;99.90
18932;DHT22;9598;50.954;3.112;2023-02-08T19:39:31;4.90;99.90
18932;DHT22;9598;50.954;3.112;2023-02-08T19:44:33;4.90;99.90
18932;DHT22;9598;50.954;3.112;2023-02-08T19:49:35;4.80;99.90
18932;DHT22;9598;50.954;3.112;2023-02-08T19:54:39;4.70;99.90
18932;DHT22;9598;50.954;3.112;2023-02-08T19:59:41;4.60;99.90
18932;DHT22;9598;50.954;3.112;2023-02-08T20:04:43;4.50;99.90
18932;DHT22;9598;50.954;3.112;2023-02-08T20:09:47;4.40;99.90
18932;DHT22;9598;50.954;3.112;2023-02-08T20:14:49;4.40;99.90
18932;DHT22;9598;50.954;3.112;2023-02-08T20:19:51;4.30;99.90
18932;DHT22;9598;50.954;3.112;2023-02-08T20:24:55;4.20;99.90
18932;DHT22;9598;50.954;3.112;2023-02-08T20:29:57;4.20;99.90
18932;DHT22;9598;50.954;3.112;2023-02-08T20:34:59;4.10;99.90
18932;DHT22;9598;50.954;3.112;2023-02-08T20:40:04;4.10;99.90
18932;DHT22;9598;50.954;3.112;2023-02-08T20:45:07;4.00;99.90
18932;DHT22;9598;50.954;3.112;2023-02-08T20:50:13;4.00;99.90
18932;DHT22;9598;50.954;3.112;2023-02-08T20:55:17;4.00;99.90
18932;DHT22;9598;50.954;3.112;2023-02-08T21:00:19;4.00;99.90
18932;DHT22;9598;50.954;3.112;2023-02-08T21:05:22;3.90;99.90
18932;DHT22;9598;50.954;3.112;2023-02-08T21:10:26;3.80;99.90
18932;DHT22;9598;50.954;3.112;2023-02-08T21:15:28;3.80;99.90
18932;DHT22;9598;50.954;3.112;2023-02-08T21:20:30;3.70;99.90
18932;DHT22;9598;50.954;3.112;2023-02-08T21:25:37;3.70;99.90
18932;DHT22;9598;50.954;3.112;2023-02-08T21:30:43;3.70;99.90
18932;DHT22;9598;50.954;3.112;2023-02-08T21:35:45;3.60;99.90
18932;DHT22;9598;50.954;3.112;2023-02-08T21:40:51;3.60;99.90
18932;DHT22;9598;50.954;3.112;2023-02-08T21:45:53;3.50;99.90
18932;DHT22;9598;50.954;3.112;2023-02-08T21:50:58;3.50;99.90
18932;DHT22;9598;50.954;3.112;2023-02-08T21:56:19;3.40;99.90
18932;DHT22;9598;50.954;3.112;2023-02-08T22:01:21;3.40;99.90
18932;DHT22;9598;50.954;3.112;2023-02-08T22:06:23;3.40;99.90
18932;DHT22;9598;50.954;3.112;2023-02-08T22:11:27;3.30;99.90
18932;DHT22;9598;50.954;3.112;2023-02-08T22:16:29;3.30;99.90
18932;DHT22;9598;50.954;3.112;2023-02-08T22:21:32;3.30;99.90
18932;DHT22;9598;50.954;3.112;2023-02-08T22:26:35;3.20;99.90
18932;DHT22;9598;50.954;3.112;2023-02-08T22:31:37;3.20;99.90
18932;DHT22;9598;50.954;3.112;2023-02-08T22:36:39;3.20;99.90
18932;DHT22;9598;50.954;3.112;2023-02-08T22:41:43;3.20;99.90
18932;DHT22;9598;50.954;3.112;2023-02-08T22:46:45;3.20;99.90
18932;DHT22;9598;50.954;3.112;2023-02-08T22:51:47;3.10;99.90
18932;DHT22;9598;50.954;3.112;2023-02-08T22:56:51;3.10;99.90
18932;DHT22;9598;50.954;3.112;2023-02-08T23:01:53;3.10;99.90
18932;DHT22;9598;50.954;3.112;2023-02-08T23:06:56;3.00;99.90
18932;DHT22;9598;50.954;3.112;2023-02-08T23:11:59;3.00;99.90
18932;DHT22;9598;50.954;3.112;2023-02-08T23:17:02;2.90;99.90
18932;DHT22;9598;50.954;3.112;2023-02-08T23:22:04;2.90;99.90
18932;DHT22;9598;50.954;3.112;2023-02-08T23:27:07;2.90;99.90
18932;DHT22;9598;50.954;3.112;2023-02-08T23:32:09;2.80;99.90
18932;DHT22;9598;50.954;3.112;2023-02-08T23:37:12;2.70;99.90
18932;DHT22;9598;50.954;3.112;2023-02-08T23:42:15;2.70;99.90
18932;DHT22;9598;50.954;3.112;2023-02-08T23:47:27;2.70;99.90
18932;DHT22;9598;50.954;3.112;2023-02-08T23:52:29;2.70;99.90
18932;DHT22;9598;50.954;3.112;2023-02-08T23:57:34;2.70;99.90
